sensor_id;sensor_type;location;lat;lon;timestamp;P1;durP1;ratioP1;P2;durP2;ratioP2
37997;SDS011;24079;51.824;4.682;2023-07-20T00:01:27;6.88;;;4.50;;
37997;SDS011;24079;51.824;4.682;2023-07-20T00:03:54;8.18;;;4.53;;
37997;SDS011;24079;51.824;4.682;2023-07-20T00:06:21;6.10;;;4.20;;
37997;SDS011;24079;51.824;4.682;2023-07-20T00:08:47;9.07;;;5.20;;
37997;SDS011;24079;51.824;4.682;2023-07-20T00:11:13;8.52;;;4.43;;
37997;SDS011;24079;51.824;4.682;2023-07-20T00:13:39;13.80;;;5.05;;
37997;SDS011;24079;51.824;4.682;2023-07-20T00:16:05;10.60;;;4.47;;
37997;SDS011;24079;51.824;4.682;2023-07-20T00:18:30;11.25;;;5.43;;
37997;SDS011;24079;51.824;4.682;2023-07-20T00:20:56;9.50;;;5.60;;
37997;SDS011;24079;51.824;4.682;2023-07-20T00:23:22;10.52;;;5.97;;
37997;SDS011;24079;51.824;4.682;2023-07-20T00:25:48;13.00;;;6.13;;
37997;SDS011;24079;51.824;4.682;2023-07-20T00:28:14;14.43;;;7.03;;
37997;SDS011;24079;51.824;4.682;2023-07-20T00:30:40;12.93;;;6.82;;
37997;SDS011;24079;51.824;4.682;2023-07-20T00:33:10;13.05;;;6.55;;
37997;SDS011;24079;51.824;4.682;2023-07-20T00:35:37;13.25;;;7.05;;
37997;SDS011;24079;51.824;4.682;2023-07-20T00:38:04;13.82;;;7.97;;
37997;SDS011;24079;51.824;4.682;2023-07-20T00:40:39;14.57;;;9.10;;
37997;SDS011;24079;51.824;4.682;2023-07-20T00:43:07;12.80;;;8.70;;
37997;SDS011;24079;51.824;4.682;2023-07-20T00:45:34;15.10;;;8.48;;
37997;SDS011;24079;51.824;4.682;2023-07-20T00:48:02;15.68;;;8.98;;
37997;SDS011;24079;51.824;4.682;2023-07-20T00:50:31;16.33;;;10.27;;
37997;SDS011;24079;51.824;4.682;2023-07-20T00:52:59;14.43;;;8.85;;
37997;SDS011;24079;51.824;4.682;2023-07-20T00:55:25;16.40;;;8.77;;
37997;SDS011;24079;51.824;4.682;2023-07-20T00:57:52;15.20;;;9.52;;
37997;SDS011;24079;51.824;4.682;2023-07-20T01:00:18;15.10;;;9.10;;
37997;SDS011;24079;51.824;4.682;2023-07-20T01:02:44;15.32;;;9.80;;
37997;SDS011;24079;51.824;4.682;2023-07-20T01:05:10;17.50;;;10.68;;
37997;SDS011;24079;51.824;4.682;2023-07-20T01:07:58;19.90;;;11.98;;
37997;SDS011;24079;51.824;4.682;2023-07-20T01:12:58;19.35;;;12.80;;
37997;SDS011;24079;51.824;4.682;2023-07-20T01:15:26;21.65;;;13.23;;
37997;SDS011;24079;51.824;4.682;2023-07-20T01:17:52;19.27;;;12.98;;
37997;SDS011;24079;51.824;4.682;2023-07-20T01:20:19;15.40;;;10.68;;
37997;SDS011;24079;51.824;4.682;2023-07-20T01:23:09;17.63;;;12.48;;
37997;SDS011;24079;51.824;4.682;2023-07-20T01:33:44;18.63;;;12.60;;
37997;SDS011;24079;51.824;4.682;2023-07-20T01:36:12;18.55;;;12.07;;
37997;SDS011;24079;51.824;4.682;2023-07-20T01:38:39;17.55;;;13.13;;
37997;SDS011;24079;51.824;4.682;2023-07-20T01:41:06;14.80;;;11.63;;
37997;SDS011;24079;51.824;4.682;2023-07-20T01:43:33;14.52;;;10.85;;
37997;SDS011;24079;51.824;4.682;2023-07-20T01:45:59;16.90;;;11.77;;
37997;SDS011;24079;51.824;4.682;2023-07-20T01:48:25;15.77;;;11.10;;
37997;SDS011;24079;51.824;4.682;2023-07-20T01:50:50;17.83;;;12.23;;
37997;SDS011;24079;51.824;4.682;2023-07-20T01:53:16;16.42;;;12.80;;
37997;SDS011;24079;51.824;4.682;2023-07-20T01:55:42;13.65;;;10.55;;
37997;SDS011;24079;51.824;4.682;2023-07-20T01:58:08;14.27;;;11.00;;
37997;SDS011;24079;51.824;4.682;2023-07-20T02:00:34;13.35;;;10.68;;
37997;SDS011;24079;51.824;4.682;2023-07-20T02:03:01;14.70;;;11.27;;
37997;SDS011;24079;51.824;4.682;2023-07-20T02:05:27;16.20;;;11.98;;
37997;SDS011;24079;51.824;4.682;2023-07-20T02:07:53;16.13;;;11.70;;
37997;SDS011;24079;51.824;4.682;2023-07-20T02:10:19;14.55;;;9.88;;
37997;SDS011;24079;51.824;4.682;2023-07-20T02:12:44;14.55;;;10.95;;
37997;SDS011;24079;51.824;4.682;2023-07-20T02:15:10;17.67;;;11.45;;
37997;SDS011;24079;51.824;4.682;2023-07-20T02:17:36;17.00;;;12.00;;
37997;SDS011;24079;51.824;4.682;2023-07-20T02:20:02;15.82;;;11.57;;
37997;SDS011;24079;51.824;4.682;2023-07-20T02:22:29;14.90;;;11.20;;
37997;SDS011;24079;51.824;4.682;2023-07-20T02:24:54;15.25;;;10.80;;
37997;SDS011;24079;51.824;4.682;2023-07-20T02:27:20;14.82;;;10.10;;
37997;SDS011;24079;51.824;4.682;2023-07-20T02:29:46;13.20;;;9.48;;
37997;SDS011;24079;51.824;4.682;2023-07-20T02:32:11;13.25;;;9.95;;
37997;SDS011;24079;51.824;4.682;2023-07-20T02:34:37;17.00;;;10.82;;
37997;SDS011;24079;51.824;4.682;2023-07-20T02:37:03;15.63;;;11.80;;
37997;SDS011;24079;51.824;4.682;2023-07-20T02:39:29;16.65;;;12.40;;
37997;SDS011;24079;51.824;4.682;2023-07-20T02:41:55;16.17;;;10.23;;
37997;SDS011;24079;51.824;4.682;2023-07-20T02:44:21;11.73;;;9.82;;
37997;SDS011;24079;51.824;4.682;2023-07-20T02:46:47;14.65;;;9.80;;
37997;SDS011;24079;51.824;4.682;2023-07-20T02:49:14;15.50;;;10.05;;
37997;SDS011;24079;51.824;4.682;2023-07-20T02:51:40;11.77;;;9.80;;
37997;SDS011;24079;51.824;4.682;2023-07-20T02:54:06;12.18;;;9.73;;
37997;SDS011;24079;51.824;4.682;2023-07-20T02:56:33;13.30;;;8.85;;
37997;SDS011;24079;51.824;4.682;2023-07-20T02:58:58;11.57;;;7.95;;
37997;SDS011;24079;51.824;4.682;2023-07-20T03:01:24;12.18;;;8.07;;
37997;SDS011;24079;51.824;4.682;2023-07-20T03:03:52;12.18;;;7.63;;
37997;SDS011;24079;51.824;4.682;2023-07-20T03:06:18;9.20;;;6.65;;
37997;SDS011;24079;51.824;4.682;2023-07-20T03:08:44;15.27;;;8.02;;
37997;SDS011;24079;51.824;4.682;2023-07-20T03:11:12;11.35;;;6.75;;
37997;SDS011;24079;51.824;4.682;2023-07-20T03:13:40;9.27;;;6.55;;
37997;SDS011;24079;51.824;4.682;2023-07-20T03:16:06;6.93;;;6.00;;
37997;SDS011;24079;51.824;4.682;2023-07-20T03:18:36;9.05;;;5.72;;
37997;SDS011;24079;51.824;4.682;2023-07-20T03:21:03;7.60;;;5.82;;
37997;SDS011;24079;51.824;4.682;2023-07-20T03:23:29;9.35;;;4.97;;
37997;SDS011;24079;51.824;4.682;2023-07-20T03:25:55;6.75;;;5.28;;
37997;SDS011;24079;51.824;4.682;2023-07-20T03:28:21;8.52;;;4.90;;
37997;SDS011;24079;51.824;4.682;2023-07-20T03:30:52;7.63;;;5.20;;
37997;SDS011;24079;51.824;4.682;2023-07-20T03:33:25;7.63;;;5.03;;
37997;SDS011;24079;51.824;4.682;2023-07-20T03:35:51;5.72;;;4.15;;
37997;SDS011;24079;51.824;4.682;2023-07-20T03:38:18;7.35;;;4.57;;
37997;SDS011;24079;51.824;4.682;2023-07-20T03:40:56;6.95;;;4.18;;
37997;SDS011;24079;51.824;4.682;2023-07-20T03:43:24;7.97;;;4.25;;
37997;SDS011;24079;51.824;4.682;2023-07-20T03:45:51;7.13;;;4.97;;
37997;SDS011;24079;51.824;4.682;2023-07-20T03:48:21;5.80;;;4.50;;
37997;SDS011;24079;51.824;4.682;2023-07-20T03:50:48;5.40;;;4.60;;
37997;SDS011;24079;51.824;4.682;2023-07-20T03:53:16;8.43;;;4.60;;
37997;SDS011;24079;51.824;4.682;2023-07-20T03:55:49;6.18;;;4.15;;
37997;SDS011;24079;51.824;4.682;2023-07-20T03:58:16;6.40;;;4.88;;
37997;SDS011;24079;51.824;4.682;2023-07-20T04:00:44;6.68;;;4.85;;
37997;SDS011;24079;51.824;4.682;2023-07-20T04:03:11;5.95;;;5.00;;
37997;SDS011;24079;51.824;4.682;2023-07-20T04:05:37;6.50;;;4.25;;
37997;SDS011;24079;51.824;4.682;2023-07-20T04:08:02;8.50;;;5.28;;
37997;SDS011;24079;51.824;4.682;2023-07-20T04:10:28;8.82;;;4.13;;
37997;SDS011;24079;51.824;4.682;2023-07-20T04:12:54;7.65;;;4.57;;
37997;SDS011;24079;51.824;4.682;2023-07-20T04:15:20;9.10;;;5.15;;
37997;SDS011;24079;51.824;4.682;2023-07-20T04:17:46;7.00;;;5.05;;
37997;SDS011;24079;51.824;4.682;2023-07-20T04:20:11;6.20;;;4.65;;
37997;SDS011;24079;51.824;4.682;2023-07-20T04:22:37;8.25;;;5.10;;
37997;SDS011;24079;51.824;4.682;2023-07-20T04:25:03;6.93;;;4.75;;
37997;SDS011;24079;51.824;4.682;2023-07-20T04:27:29;9.13;;;4.78;;
37997;SDS011;24079;51.824;4.682;2023-07-20T04:29:55;6.50;;;4.47;;
37997;SDS011;24079;51.824;4.682;2023-07-20T04:32:23;10.25;;;4.68;;
37997;SDS011;24079;51.824;4.682;2023-07-20T04:34:50;6.05;;;4.03;;
37997;SDS011;24079;51.824;4.682;2023-07-20T04:37:16;7.53;;;3.92;;
37997;SDS011;24079;51.824;4.682;2023-07-20T04:39:42;10.05;;;3.55;;
37997;SDS011;24079;51.824;4.682;2023-07-20T04:42:07;7.60;;;4.10;;
37997;SDS011;24079;51.824;4.682;2023-07-20T04:44:33;8.90;;;3.80;;
37997;SDS011;24079;51.824;4.682;2023-07-20T04:46:59;3.45;;;3.05;;
37997;SDS011;24079;51.824;4.682;2023-07-20T04:49:24;5.20;;;2.95;;
37997;SDS011;24079;51.824;4.682;2023-07-20T04:51:51;5.05;;;2.92;;
37997;SDS011;24079;51.824;4.682;2023-07-20T04:54:17;4.13;;;2.45;;
37997;SDS011;24079;51.824;4.682;2023-07-20T04:56:44;6.40;;;3.33;;
37997;SDS011;24079;51.824;4.682;2023-07-20T04:59:10;3.45;;;2.40;;
37997;SDS011;24079;51.824;4.682;2023-07-20T05:01:36;3.50;;;2.45;;
37997;SDS011;24079;51.824;4.682;2023-07-20T05:04:02;4.28;;;2.30;;
37997;SDS011;24079;51.824;4.682;2023-07-20T05:06:28;2.22;;;1.85;;
37997;SDS011;24079;51.824;4.682;2023-07-20T05:08:53;3.15;;;1.85;;
37997;SDS011;24079;51.824;4.682;2023-07-20T05:11:19;3.75;;;1.73;;
37997;SDS011;24079;51.824;4.682;2023-07-20T05:13:45;2.50;;;1.38;;
37997;SDS011;24079;51.824;4.682;2023-07-20T05:16:11;3.65;;;1.80;;
37997;SDS011;24079;51.824;4.682;2023-07-20T05:18:37;1.75;;;1.25;;
37997;SDS011;24079;51.824;4.682;2023-07-20T05:21:02;3.35;;;1.35;;
37997;SDS011;24079;51.824;4.682;2023-07-20T05:23:28;2.00;;;1.45;;
37997;SDS011;24079;51.824;4.682;2023-07-20T05:25:58;3.70;;;1.77;;
37997;SDS011;24079;51.824;4.682;2023-07-20T05:28:25;2.10;;;1.33;;
37997;SDS011;24079;51.824;4.682;2023-07-20T05:30:52;3.95;;;1.70;;
37997;SDS011;24079;51.824;4.682;2023-07-20T05:33:19;4.78;;;1.70;;
37997;SDS011;24079;51.824;4.682;2023-07-20T05:35:45;2.42;;;1.65;;
37997;SDS011;24079;51.824;4.682;2023-07-20T05:38:11;2.83;;;1.60;;
37997;SDS011;24079;51.824;4.682;2023-07-20T05:40:37;2.75;;;1.80;;
37997;SDS011;24079;51.824;4.682;2023-07-20T05:43:05;6.40;;;1.77;;
37997;SDS011;24079;51.824;4.682;2023-07-20T05:45:31;5.85;;;1.63;;
37997;SDS011;24079;51.824;4.682;2023-07-20T05:47:57;3.05;;;1.88;;
37997;SDS011;24079;51.824;4.682;2023-07-20T05:50:22;3.75;;;1.83;;
37997;SDS011;24079;51.824;4.682;2023-07-20T05:52:48;3.25;;;1.90;;
37997;SDS011;24079;51.824;4.682;2023-07-20T05:55:14;2.58;;;1.80;;
37997;SDS011;24079;51.824;4.682;2023-07-20T05:57:40;3.95;;;1.70;;
37997;SDS011;24079;51.824;4.682;2023-07-20T06:00:07;5.55;;;1.83;;
37997;SDS011;24079;51.824;4.682;2023-07-20T06:02:33;6.38;;;2.28;;
37997;SDS011;24079;51.824;4.682;2023-07-20T06:04:59;3.67;;;1.65;;
37997;SDS011;24079;51.824;4.682;2023-07-20T06:07:25;4.55;;;1.10;;
37997;SDS011;24079;51.824;4.682;2023-07-20T06:09:51;3.22;;;1.45;;
37997;SDS011;24079;51.824;4.682;2023-07-20T06:12:16;2.88;;;1.13;;
37997;SDS011;24079;51.824;4.682;2023-07-20T06:14:42;1.40;;;1.15;;
37997;SDS011;24079;51.824;4.682;2023-07-20T06:17:08;3.08;;;1.42;;
37997;SDS011;24079;51.824;4.682;2023-07-20T06:19:34;5.60;;;1.77;;
37997;SDS011;24079;51.824;4.682;2023-07-20T06:22:00;5.88;;;1.73;;
37997;SDS011;24079;51.824;4.682;2023-07-20T06:24:26;4.13;;;1.63;;
37997;SDS011;24079;51.824;4.682;2023-07-20T06:26:51;5.03;;;1.90;;
37997;SDS011;24079;51.824;4.682;2023-07-20T06:29:17;2.13;;;1.55;;
37997;SDS011;24079;51.824;4.682;2023-07-20T06:31:43;2.50;;;1.52;;
37997;SDS011;24079;51.824;4.682;2023-07-20T06:34:09;5.15;;;1.75;;
37997;SDS011;24079;51.824;4.682;2023-07-20T06:36:34;2.65;;;1.40;;
37997;SDS011;24079;51.824;4.682;2023-07-20T06:39:00;4.93;;;1.30;;
37997;SDS011;24079;51.824;4.682;2023-07-20T06:41:27;7.05;;;1.50;;
37997;SDS011;24079;51.824;4.682;2023-07-20T06:43:53;6.47;;;1.63;;
37997;SDS011;24079;51.824;4.682;2023-07-20T06:46:23;4.10;;;2.05;;
37997;SDS011;24079;51.824;4.682;2023-07-20T06:48:49;2.53;;;1.77;;
37997;SDS011;24079;51.824;4.682;2023-07-20T06:51:15;3.42;;;2.08;;
37997;SDS011;24079;51.824;4.682;2023-07-20T06:53:42;3.90;;;1.88;;
37997;SDS011;24079;51.824;4.682;2023-07-20T06:56:07;4.53;;;1.38;;
37997;SDS011;24079;51.824;4.682;2023-07-20T06:58:33;2.90;;;1.73;;
37997;SDS011;24079;51.824;4.682;2023-07-20T07:01:04;2.75;;;1.60;;
37997;SDS011;24079;51.824;4.682;2023-07-20T07:03:30;3.97;;;1.50;;
37997;SDS011;24079;51.824;4.682;2023-07-20T07:05:57;4.70;;;1.83;;
37997;SDS011;24079;51.824;4.682;2023-07-20T07:08:22;3.33;;;1.33;;
37997;SDS011;24079;51.824;4.682;2023-07-20T07:10:48;5.57;;;2.35;;
37997;SDS011;24079;51.824;4.682;2023-07-20T07:13:13;6.32;;;1.52;;
37997;SDS011;24079;51.824;4.682;2023-07-20T07:15:39;4.10;;;1.55;;
37997;SDS011;24079;51.824;4.682;2023-07-20T07:18:05;3.97;;;1.63;;
37997;SDS011;24079;51.824;4.682;2023-07-20T07:20:30;2.53;;;1.40;;
37997;SDS011;24079;51.824;4.682;2023-07-20T07:22:56;3.83;;;1.40;;
37997;SDS011;24079;51.824;4.682;2023-07-20T07:25:22;3.50;;;1.38;;
37997;SDS011;24079;51.824;4.682;2023-07-20T07:27:48;1.67;;;1.38;;
37997;SDS011;24079;51.824;4.682;2023-07-20T07:30:14;2.58;;;1.27;;
37997;SDS011;24079;51.824;4.682;2023-07-20T07:32:40;2.50;;;1.40;;
37997;SDS011;24079;51.824;4.682;2023-07-20T07:35:06;2.05;;;1.25;;
37997;SDS011;24079;51.824;4.682;2023-07-20T07:37:32;2.38;;;1.23;;
37997;SDS011;24079;51.824;4.682;2023-07-20T07:39:57;6.20;;;1.42;;
37997;SDS011;24079;51.824;4.682;2023-07-20T07:42:24;1.92;;;1.58;;
37997;SDS011;24079;51.824;4.682;2023-07-20T07:44:50;3.22;;;1.70;;
37997;SDS011;24079;51.824;4.682;2023-07-20T07:47:16;3.75;;;1.83;;
37997;SDS011;24079;51.824;4.682;2023-07-20T07:49:42;4.07;;;1.88;;
37997;SDS011;24079;51.824;4.682;2023-07-20T07:52:08;4.18;;;2.53;;
37997;SDS011;24079;51.824;4.682;2023-07-20T07:54:34;3.33;;;2.15;;
37997;SDS011;24079;51.824;4.682;2023-07-20T07:56:59;4.45;;;2.15;;
37997;SDS011;24079;51.824;4.682;2023-07-20T07:59:25;3.50;;;2.50;;
37997;SDS011;24079;51.824;4.682;2023-07-20T08:01:51;3.75;;;2.53;;
37997;SDS011;24079;51.824;4.682;2023-07-20T08:04:18;3.90;;;2.42;;
37997;SDS011;24079;51.824;4.682;2023-07-20T08:06:44;3.15;;;2.40;;
37997;SDS011;24079;51.824;4.682;2023-07-20T08:09:10;2.50;;;2.30;;
37997;SDS011;24079;51.824;4.682;2023-07-20T08:11:35;2.08;;;1.92;;
37997;SDS011;24079;51.824;4.682;2023-07-20T08:14:01;4.45;;;1.83;;
37997;SDS011;24079;51.824;4.682;2023-07-20T08:16:27;2.53;;;1.48;;
37997;SDS011;24079;51.824;4.682;2023-07-20T08:18:53;1.92;;;1.52;;
37997;SDS011;24079;51.824;4.682;2023-07-20T08:21:18;2.28;;;1.70;;
37997;SDS011;24079;51.824;4.682;2023-07-20T08:23:44;1.65;;;1.55;;
37997;SDS011;24079;51.824;4.682;2023-07-20T08:26:11;2.42;;;1.60;;
37997;SDS011;24079;51.824;4.682;2023-07-20T08:28:36;1.58;;;1.30;;
37997;SDS011;24079;51.824;4.682;2023-07-20T08:31:02;1.77;;;1.27;;
37997;SDS011;24079;51.824;4.682;2023-07-20T08:33:32;3.90;;;1.50;;
37997;SDS011;24079;51.824;4.682;2023-07-20T08:36:00;3.92;;;1.30;;
37997;SDS011;24079;51.824;4.682;2023-07-20T08:38:27;3.05;;;1.52;;
37997;SDS011;24079;51.824;4.682;2023-07-20T08:40:53;4.75;;;1.40;;
37997;SDS011;24079;51.824;4.682;2023-07-20T08:43:22;2.40;;;1.60;;
37997;SDS011;24079;51.824;4.682;2023-07-20T08:45:51;3.92;;;1.88;;
37997;SDS011;24079;51.824;4.682;2023-07-20T08:48:19;3.75;;;1.60;;
37997;SDS011;24079;51.824;4.682;2023-07-20T08:50:47;3.65;;;1.85;;
37997;SDS011;24079;51.824;4.682;2023-07-20T08:53:15;4.05;;;1.70;;
37997;SDS011;24079;51.824;4.682;2023-07-20T08:55:42;6.88;;;1.63;;
37997;SDS011;24079;51.824;4.682;2023-07-20T08:58:13;3.40;;;1.70;;
37997;SDS011;24079;51.824;4.682;2023-07-20T09:00:41;5.60;;;1.77;;
37997;SDS011;24079;51.824;4.682;2023-07-20T09:03:07;3.00;;;1.50;;
37997;SDS011;24079;51.824;4.682;2023-07-20T09:05:34;3.00;;;1.60;;
37997;SDS011;24079;51.824;4.682;2023-07-20T09:08:01;4.65;;;1.60;;
37997;SDS011;24079;51.824;4.682;2023-07-20T09:10:30;1.80;;;1.20;;
37997;SDS011;24079;51.824;4.682;2023-07-20T09:12:56;3.75;;;1.20;;
37997;SDS011;24079;51.824;4.682;2023-07-20T09:15:22;5.15;;;1.63;;
37997;SDS011;24079;51.824;4.682;2023-07-20T09:17:49;3.17;;;1.58;;
37997;SDS011;24079;51.824;4.682;2023-07-20T09:20:16;3.13;;;1.50;;
37997;SDS011;24079;51.824;4.682;2023-07-20T09:22:43;5.72;;;1.55;;
37997;SDS011;24079;51.824;4.682;2023-07-20T09:25:13;5.50;;;1.50;;
37997;SDS011;24079;51.824;4.682;2023-07-20T09:27:45;1.92;;;1.40;;
37997;SDS011;24079;51.824;4.682;2023-07-20T09:30:13;4.38;;;1.35;;
37997;SDS011;24079;51.824;4.682;2023-07-20T09:32:42;3.40;;;1.73;;
37997;SDS011;24079;51.824;4.682;2023-07-20T09:37:48;2.40;;;1.20;;
37997;SDS011;24079;51.824;4.682;2023-07-20T09:40:24;3.08;;;1.17;;
37997;SDS011;24079;51.824;4.682;2023-07-20T09:42:52;1.95;;;0.93;;
37997;SDS011;24079;51.824;4.682;2023-07-20T09:45:27;2.05;;;1.20;;
37997;SDS011;24079;51.824;4.682;2023-07-20T09:48:08;2.80;;;1.10;;
37997;SDS011;24079;51.824;4.682;2023-07-20T09:50:42;1.80;;;1.08;;
37997;SDS011;24079;51.824;4.682;2023-07-20T09:53:13;4.97;;;1.35;;
37997;SDS011;24079;51.824;4.682;2023-07-20T09:55:49;3.53;;;1.13;;
37997;SDS011;24079;51.824;4.682;2023-07-20T09:58:16;1.45;;;1.02;;
37997;SDS011;24079;51.824;4.682;2023-07-20T10:00:42;1.95;;;1.10;;
37997;SDS011;24079;51.824;4.682;2023-07-20T10:03:14;2.00;;;1.40;;
37997;SDS011;24079;51.824;4.682;2023-07-20T10:05:45;3.42;;;1.65;;
37997;SDS011;24079;51.824;4.682;2023-07-20T10:08:16;1.98;;;1.15;;
37997;SDS011;24079;51.824;4.682;2023-07-20T10:10:44;1.42;;;1.30;;
37997;SDS011;24079;51.824;4.682;2023-07-20T10:13:15;4.40;;;1.67;;
37997;SDS011;24079;51.824;4.682;2023-07-20T10:15:43;2.40;;;1.42;;
37997;SDS011;24079;51.824;4.682;2023-07-20T10:18:14;1.88;;;1.15;;
37997;SDS011;24079;51.824;4.682;2023-07-20T10:20:45;2.10;;;1.13;;
37997;SDS011;24079;51.824;4.682;2023-07-20T10:23:13;1.58;;;1.10;;
37997;SDS011;24079;51.824;4.682;2023-07-20T10:25:39;3.47;;;1.35;;
37997;SDS011;24079;51.824;4.682;2023-07-20T10:28:08;3.95;;;1.77;;
37997;SDS011;24079;51.824;4.682;2023-07-20T10:30:36;2.55;;;1.50;;
37997;SDS011;24079;51.824;4.682;2023-07-20T10:33:04;2.00;;;1.27;;
37997;SDS011;24079;51.824;4.682;2023-07-20T10:35:30;3.70;;;1.60;;
37997;SDS011;24079;51.824;4.682;2023-07-20T10:38:00;5.95;;;1.50;;
37997;SDS011;24079;51.824;4.682;2023-07-20T10:40:33;2.50;;;1.40;;
37997;SDS011;24079;51.824;4.682;2023-07-20T10:43:04;1.73;;;1.38;;
37997;SDS011;24079;51.824;4.682;2023-07-20T10:48:05;4.93;;;1.90;;
37997;SDS011;24079;51.824;4.682;2023-07-20T10:50:37;5.63;;;1.70;;
37997;SDS011;24079;51.824;4.682;2023-07-20T10:53:25;3.60;;;1.70;;
37997;SDS011;24079;51.824;4.682;2023-07-20T10:55:50;5.53;;;1.80;;
37997;SDS011;24079;51.824;4.682;2023-07-20T10:58:39;2.15;;;1.25;;
37997;SDS011;24079;51.824;4.682;2023-07-20T11:01:06;1.67;;;1.10;;
37997;SDS011;24079;51.824;4.682;2023-07-20T11:03:34;3.17;;;1.73;;
37997;SDS011;24079;51.824;4.682;2023-07-20T11:09:08;2.70;;;1.40;;
37997;SDS011;24079;51.824;4.682;2023-07-20T11:11:44;2.30;;;1.53;;
37997;SDS011;24079;51.824;4.682;2023-07-20T11:16:47;4.35;;;1.77;;
37997;SDS011;24079;51.824;4.682;2023-07-20T11:19:18;4.55;;;1.90;;
37997;SDS011;24079;51.824;4.682;2023-07-20T11:21:46;3.13;;;1.52;;
37997;SDS011;24079;51.824;4.682;2023-07-20T11:24:15;5.53;;;1.63;;
37997;SDS011;24079;51.824;4.682;2023-07-20T11:26:44;3.10;;;1.77;;
37997;SDS011;24079;51.824;4.682;2023-07-20T11:29:11;3.25;;;1.60;;
37997;SDS011;24079;51.824;4.682;2023-07-20T11:31:39;3.75;;;1.60;;
37997;SDS011;24079;51.824;4.682;2023-07-20T11:34:06;3.13;;;1.40;;
37997;SDS011;24079;51.824;4.682;2023-07-20T11:36:34;1.50;;;1.15;;
37997;SDS011;24079;51.824;4.682;2023-07-20T11:39:06;3.67;;;1.35;;
37997;SDS011;24079;51.824;4.682;2023-07-20T11:41:35;2.53;;;1.40;;
37997;SDS011;24079;51.824;4.682;2023-07-20T11:44:02;2.83;;;1.35;;
37997;SDS011;24079;51.824;4.682;2023-07-20T11:46:30;2.50;;;1.42;;
37997;SDS011;24079;51.824;4.682;2023-07-20T11:48:57;1.50;;;1.23;;
37997;SDS011;24079;51.824;4.682;2023-07-20T11:51:24;3.47;;;1.33;;
37997;SDS011;24079;51.824;4.682;2023-07-20T11:53:55;4.50;;;1.50;;
37997;SDS011;24079;51.824;4.682;2023-07-20T11:56:22;1.92;;;1.15;;
37997;SDS011;24079;51.824;4.682;2023-07-20T11:58:49;3.50;;;1.40;;
37997;SDS011;24079;51.824;4.682;2023-07-20T12:01:19;6.15;;;1.02;;
37997;SDS011;24079;51.824;4.682;2023-07-20T12:03:47;2.50;;;1.30;;
37997;SDS011;24079;51.824;4.682;2023-07-20T12:06:14;2.25;;;1.55;;
37997;SDS011;24079;51.824;4.682;2023-07-20T12:08:41;6.10;;;1.40;;
37997;SDS011;24079;51.824;4.682;2023-07-20T12:11:08;1.80;;;1.20;;
37997;SDS011;24079;51.824;4.682;2023-07-20T12:13:54;1.67;;;1.30;;
37997;SDS011;24079;51.824;4.682;2023-07-20T12:16:26;2.50;;;1.60;;
37997;SDS011;24079;51.824;4.682;2023-07-20T12:19:03;4.43;;;1.23;;
37997;SDS011;24079;51.824;4.682;2023-07-20T12:21:30;3.17;;;1.25;;
37997;SDS011;24079;51.824;4.682;2023-07-20T12:23:57;2.63;;;1.38;;
37997;SDS011;24079;51.824;4.682;2023-07-20T12:26:24;2.67;;;1.30;;
37997;SDS011;24079;51.824;4.682;2023-07-20T12:28:51;2.97;;;1.30;;
37997;SDS011;24079;51.824;4.682;2023-07-20T12:31:18;2.65;;;1.20;;
37997;SDS011;24079;51.824;4.682;2023-07-20T12:33:44;3.58;;;1.30;;
37997;SDS011;24079;51.824;4.682;2023-07-20T12:36:10;5.13;;;1.48;;
37997;SDS011;24079;51.824;4.682;2023-07-20T12:38:36;7.35;;;1.33;;
37997;SDS011;24079;51.824;4.682;2023-07-20T12:41:02;5.50;;;1.20;;
37997;SDS011;24079;51.824;4.682;2023-07-20T12:43:28;1.60;;;0.80;;
37997;SDS011;24079;51.824;4.682;2023-07-20T12:45:56;2.97;;;1.20;;
37997;SDS011;24079;51.824;4.682;2023-07-20T12:48:22;2.35;;;1.10;;
37997;SDS011;24079;51.824;4.682;2023-07-20T12:50:48;4.70;;;0.90;;
37997;SDS011;24079;51.824;4.682;2023-07-20T12:53:14;2.25;;;0.95;;
37997;SDS011;24079;51.824;4.682;2023-07-20T12:55:40;2.42;;;1.40;;
37997;SDS011;24079;51.824;4.682;2023-07-20T12:58:06;3.75;;;1.40;;
37997;SDS011;24079;51.824;4.682;2023-07-20T13:00:33;6.22;;;1.17;;
37997;SDS011;24079;51.824;4.682;2023-07-20T13:02:59;5.28;;;1.00;;
37997;SDS011;24079;51.824;4.682;2023-07-20T13:05:33;5.40;;;1.20;;
37997;SDS011;24079;51.824;4.682;2023-07-20T13:08:00;2.35;;;1.10;;
37997;SDS011;24079;51.824;4.682;2023-07-20T13:10:30;2.17;;;1.25;;
37997;SDS011;24079;51.824;4.682;2023-07-20T13:12:57;4.95;;;1.20;;
37997;SDS011;24079;51.824;4.682;2023-07-20T13:15:24;4.22;;;1.40;;
37997;SDS011;24079;51.824;4.682;2023-07-20T13:17:56;2.20;;;1.08;;
37997;SDS011;24079;51.824;4.682;2023-07-20T13:20:22;6.10;;;1.50;;
37997;SDS011;24079;51.824;4.682;2023-07-20T13:22:49;2.45;;;1.20;;
37997;SDS011;24079;51.824;4.682;2023-07-20T13:25:15;1.80;;;0.95;;
37997;SDS011;24079;51.824;4.682;2023-07-20T13:27:41;3.47;;;1.00;;
37997;SDS011;24079;51.824;4.682;2023-07-20T13:30:07;4.05;;;1.20;;
37997;SDS011;24079;51.824;4.682;2023-07-20T13:32:39;3.17;;;1.50;;
37997;SDS011;24079;51.824;4.682;2023-07-20T13:35:05;4.07;;;1.40;;
37997;SDS011;24079;51.824;4.682;2023-07-20T13:37:32;3.63;;;1.13;;
37997;SDS011;24079;51.824;4.682;2023-07-20T13:39:58;4.70;;;1.55;;
37997;SDS011;24079;51.824;4.682;2023-07-20T13:42:25;3.10;;;1.52;;
37997;SDS011;24079;51.824;4.682;2023-07-20T13:44:51;1.23;;;1.00;;
37997;SDS011;24079;51.824;4.682;2023-07-20T13:47:17;2.03;;;1.08;;
37997;SDS011;24079;51.824;4.682;2023-07-20T13:49:43;3.30;;;1.20;;
37997;SDS011;24079;51.824;4.682;2023-07-20T13:52:09;5.15;;;1.40;;
37997;SDS011;24079;51.824;4.682;2023-07-20T13:54:35;2.60;;;1.13;;
37997;SDS011;24079;51.824;4.682;2023-07-20T13:57:01;3.58;;;1.33;;
37997;SDS011;24079;51.824;4.682;2023-07-20T13:59:28;2.75;;;1.10;;
37997;SDS011;24079;51.824;4.682;2023-07-20T14:01:54;3.45;;;1.52;;
37997;SDS011;24079;51.824;4.682;2023-07-20T14:04:20;4.50;;;1.38;;
37997;SDS011;24079;51.824;4.682;2023-07-20T14:06:47;1.40;;;1.20;;
37997;SDS011;24079;51.824;4.682;2023-07-20T14:09:13;1.77;;;1.00;;
37997;SDS011;24079;51.824;4.682;2023-07-20T14:11:39;2.78;;;1.30;;
37997;SDS011;24079;51.824;4.682;2023-07-20T14:14:06;8.20;;;1.60;;
37997;SDS011;24079;51.824;4.682;2023-07-20T14:16:31;4.47;;;1.25;;
37997;SDS011;24079;51.824;4.682;2023-07-20T14:18:57;2.40;;;1.00;;
37997;SDS011;24079;51.824;4.682;2023-07-20T14:21:24;3.45;;;1.25;;
37997;SDS011;24079;51.824;4.682;2023-07-20T14:23:50;2.20;;;1.30;;
37997;SDS011;24079;51.824;4.682;2023-07-20T14:26:18;5.88;;;1.50;;
37997;SDS011;24079;51.824;4.682;2023-07-20T14:28:46;3.85;;;1.10;;
37997;SDS011;24079;51.824;4.682;2023-07-20T14:31:12;2.55;;;1.08;;
37997;SDS011;24079;51.824;4.682;2023-07-20T14:33:38;5.10;;;1.35;;
37997;SDS011;24079;51.824;4.682;2023-07-20T14:36:05;2.83;;;1.30;;
37997;SDS011;24079;51.824;4.682;2023-07-20T14:38:31;3.65;;;1.15;;
37997;SDS011;24079;51.824;4.682;2023-07-20T14:40:59;1.63;;;0.93;;
37997;SDS011;24079;51.824;4.682;2023-07-20T14:43:25;4.28;;;1.65;;
37997;SDS011;24079;51.824;4.682;2023-07-20T14:45:52;4.68;;;1.35;;
37997;SDS011;24079;51.824;4.682;2023-07-20T14:48:19;5.88;;;1.40;;
37997;SDS011;24079;51.824;4.682;2023-07-20T14:50:45;1.48;;;1.38;;
37997;SDS011;24079;51.824;4.682;2023-07-20T14:53:13;3.58;;;1.38;;
37997;SDS011;24079;51.824;4.682;2023-07-20T14:55:39;2.90;;;1.50;;
37997;SDS011;24079;51.824;4.682;2023-07-20T14:58:05;3.65;;;1.38;;
37997;SDS011;24079;51.824;4.682;2023-07-20T15:00:31;1.48;;;0.90;;
37997;SDS011;24079;51.824;4.682;2023-07-20T15:02:57;4.50;;;1.20;;
37997;SDS011;24079;51.824;4.682;2023-07-20T15:05:23;4.65;;;1.20;;